sensor_id;sensor_type;location;lat;lon;timestamp;temperature;humidity
38436;DHT22;24220;48.168;14.024;2023-03-31T00:01:07;14.30;70.70
38436;DHT22;24220;48.168;14.024;2023-03-31T00:03:34;14.30;70.60
38436;DHT22;24220;48.168;14.024;2023-03-31T00:06:05;14.30;70.70
38436;DHT22;24220;48.168;14.024;2023-03-31T00:08:33;14.30;70.60
38436;DHT22;24220;48.168;14.024;2023-03-31T00:11:06;14.40;70.70
38436;DHT22;24220;48.168;14.024;2023-03-31T00:13:37;14.40;70.60
38436;DHT22;24220;48.168;14.024;2023-03-31T00:16:09;14.40;70.60
38436;DHT22;24220;48.168;14.024;2023-03-31T00:18:36;14.40;70.50
38436;DHT22;24220;48.168;14.024;2023-03-31T00:21:12;14.40;70.50
38436;DHT22;24220;48.168;14.024;2023-03-31T00:23:41;14.40;70.40
38436;DHT22;24220;48.168;14.024;2023-03-31T00:26:08;14.40;70.50
38436;DHT22;24220;48.168;14.024;2023-03-31T00:28:35;14.30;70.50
38436;DHT22;24220;48.168;14.024;2023-03-31T00:31:05;14.40;70.50
38436;DHT22;24220;48.168;14.024;2023-03-31T00:33:35;14.40;70.60
38436;DHT22;24220;48.168;14.024;2023-03-31T00:36:02;14.40;70.60
38436;DHT22;24220;48.168;14.024;2023-03-31T00:38:32;14.30;70.50
38436;DHT22;24220;48.168;14.024;2023-03-31T00:41:03;14.40;70.50
38436;DHT22;24220;48.168;14.024;2023-03-31T00:43:35;14.30;70.50
38436;DHT22;24220;48.168;14.024;2023-03-31T00:48:56;14.30;70.50
38436;DHT22;24220;48.168;14.024;2023-03-31T00:51:31;14.30;70.60
38436;DHT22;24220;48.168;14.024;2023-03-31T00:54:03;14.30;70.70
38436;DHT22;24220;48.168;14.024;2023-03-31T00:56:36;14.30;70.80
38436;DHT22;24220;48.168;14.024;2023-03-31T00:59:10;14.30;70.60
38436;DHT22;24220;48.168;14.024;2023-03-31T01:01:41;14.30;70.80
38436;DHT22;24220;48.168;14.024;2023-03-31T01:04:13;14.30;70.80
38436;DHT22;24220;48.168;14.024;2023-03-31T01:06:59;14.30;70.70
38436;DHT22;24220;48.168;14.024;2023-03-31T01:09:29;14.30;70.60
38436;DHT22;24220;48.168;14.024;2023-03-31T01:12:07;14.30;70.40
38436;DHT22;24220;48.168;14.024;2023-03-31T01:14:36;14.30;70.30
38436;DHT22;24220;48.168;14.024;2023-03-31T01:17:04;14.30;70.30
38436;DHT22;24220;48.168;14.024;2023-03-31T01:19:45;14.30;70.20
38436;DHT22;24220;48.168;14.024;2023-03-31T01:28:00;14.20;70.00
38436;DHT22;24220;48.168;14.024;2023-03-31T01:37:06;14.20;70.00
38436;DHT22;24220;48.168;14.024;2023-03-31T01:50:30;14.20;70.00
38436;DHT22;24220;48.168;14.024;2023-03-31T01:58:43;14.20;69.90
38436;DHT22;24220;48.168;14.024;2023-03-31T02:03:58;14.20;69.60
38436;DHT22;24220;48.168;14.024;2023-03-31T02:06:33;14.20;69.60
38436;DHT22;24220;48.168;14.024;2023-03-31T02:09:05;14.20;69.60
38436;DHT22;24220;48.168;14.024;2023-03-31T02:11:35;14.20;69.60
38436;DHT22;24220;48.168;14.024;2023-03-31T02:14:08;14.20;69.60
38436;DHT22;24220;48.168;14.024;2023-03-31T02:16:39;14.20;69.40
38436;DHT22;24220;48.168;14.024;2023-03-31T02:19:16;14.20;69.40
38436;DHT22;24220;48.168;14.024;2023-03-31T02:21:47;14.20;69.60
38436;DHT22;24220;48.168;14.024;2023-03-31T02:24:20;14.20;69.70
38436;DHT22;24220;48.168;14.024;2023-03-31T02:27:20;14.20;69.70
38436;DHT22;24220;48.168;14.024;2023-03-31T02:29:48;14.20;69.70
38436;DHT22;24220;48.168;14.024;2023-03-31T02:32:28;14.20;69.60
38436;DHT22;24220;48.168;14.024;2023-03-31T02:34:58;14.20;69.80
38436;DHT22;24220;48.168;14.024;2023-03-31T02:37:28;14.20;69.80
38436;DHT22;24220;48.168;14.024;2023-03-31T02:39:59;14.20;69.70
38436;DHT22;24220;48.168;14.024;2023-03-31T02:42:27;14.20;69.60
38436;DHT22;24220;48.168;14.024;2023-03-31T02:45:04;14.20;69.50
38436;DHT22;24220;48.168;14.024;2023-03-31T02:47:32;14.10;69.40
38436;DHT22;24220;48.168;14.024;2023-03-31T02:50:01;14.10;69.50
38436;DHT22;24220;48.168;14.024;2023-03-31T02:58:16;14.10;69.70
38436;DHT22;24220;48.168;14.024;2023-03-31T03:03:28;14.00;69.50
38436;DHT22;24220;48.168;14.024;2023-03-31T03:09:36;14.00;69.80
38436;DHT22;24220;48.168;14.024;2023-03-31T03:15:30;14.00;69.60
38436;DHT22;24220;48.168;14.024;2023-03-31T03:18:02;13.90;69.60
38436;DHT22;24220;48.168;14.024;2023-03-31T03:20:33;13.90;69.40
38436;DHT22;24220;48.168;14.024;2023-03-31T03:23:01;13.90;69.50
38436;DHT22;24220;48.168;14.024;2023-03-31T03:25:29;13.90;69.40
38436;DHT22;24220;48.168;14.024;2023-03-31T03:27:56;13.80;69.50
38436;DHT22;24220;48.168;14.024;2023-03-31T03:30:23;13.80;69.50
38436;DHT22;24220;48.168;14.024;2023-03-31T03:32:51;13.80;69.60
38436;DHT22;24220;48.168;14.024;2023-03-31T03:35:20;13.80;69.50
38436;DHT22;24220;48.168;14.024;2023-03-31T03:37:48;13.70;69.50
38436;DHT22;24220;48.168;14.024;2023-03-31T03:40:17;13.70;69.50
38436;DHT22;24220;48.168;14.024;2023-03-31T03:42:44;13.70;69.50
38436;DHT22;24220;48.168;14.024;2023-03-31T03:45:14;13.70;69.50
38436;DHT22;24220;48.168;14.024;2023-03-31T03:47:41;13.70;69.50
38436;DHT22;24220;48.168;14.024;2023-03-31T03:50:11;13.70;69.50
38436;DHT22;24220;48.168;14.024;2023-03-31T03:52:42;13.60;69.50
38436;DHT22;24220;48.168;14.024;2023-03-31T03:55:13;13.60;69.70
38436;DHT22;24220;48.168;14.024;2023-03-31T03:57:40;13.60;69.60
38436;DHT22;24220;48.168;14.024;2023-03-31T04:00:08;13.60;69.60
38436;DHT22;24220;48.168;14.024;2023-03-31T04:02:39;13.50;70.00
38436;DHT22;24220;48.168;14.024;2023-03-31T04:05:07;13.50;69.40
38436;DHT22;24220;48.168;14.024;2023-03-31T04:07:34;13.50;69.40
38436;DHT22;24220;48.168;14.024;2023-03-31T04:10:01;13.50;69.40
38436;DHT22;24220;48.168;14.024;2023-03-31T04:12:29;13.50;69.60
38436;DHT22;24220;48.168;14.024;2023-03-31T04:14:56;13.40;69.70
38436;DHT22;24220;48.168;14.024;2023-03-31T04:17:26;13.40;69.70
38436;DHT22;24220;48.168;14.024;2023-03-31T04:20:01;13.40;69.70
38436;DHT22;24220;48.168;14.024;2023-03-31T04:22:28;13.40;69.40
38436;DHT22;24220;48.168;14.024;2023-03-31T04:25:04;13.40;69.40
38436;DHT22;24220;48.168;14.024;2023-03-31T04:27:47;13.30;69.40
38436;DHT22;24220;48.168;14.024;2023-03-31T04:30:25;13.30;69.30
38436;DHT22;24220;48.168;14.024;2023-03-31T04:32:59;13.30;69.30
38436;DHT22;24220;48.168;14.024;2023-03-31T04:35:29;13.30;69.30
38436;DHT22;24220;48.168;14.024;2023-03-31T04:38:24;13.20;69.20
38436;DHT22;24220;48.168;14.024;2023-03-31T04:40:53;13.20;69.30
38436;DHT22;24220;48.168;14.024;2023-03-31T04:43:22;13.20;69.40
38436;DHT22;24220;48.168;14.024;2023-03-31T04:45:52;13.20;69.40
38436;DHT22;24220;48.168;14.024;2023-03-31T04:48:24;13.10;69.60
38436;DHT22;24220;48.168;14.024;2023-03-31T04:50:52;13.10;69.70
38436;DHT22;24220;48.168;14.024;2023-03-31T04:53:19;13.10;69.70
38436;DHT22;24220;48.168;14.024;2023-03-31T04:55:49;13.10;69.80
38436;DHT22;24220;48.168;14.024;2023-03-31T04:58:18;13.10;69.80
38436;DHT22;24220;48.168;14.024;2023-03-31T05:00:51;13.10;69.80
38436;DHT22;24220;48.168;14.024;2023-03-31T05:03:21;13.00;69.80
38436;DHT22;24220;48.168;14.024;2023-03-31T05:05:53;13.10;70.00
38436;DHT22;24220;48.168;14.024;2023-03-31T05:08:21;13.00;70.10
38436;DHT22;24220;48.168;14.024;2023-03-31T05:10:51;13.10;70.30
38436;DHT22;24220;48.168;14.024;2023-03-31T05:13:20;13.10;70.30
38436;DHT22;24220;48.168;14.024;2023-03-31T05:15:50;13.10;70.40
38436;DHT22;24220;48.168;14.024;2023-03-31T05:18:18;13.00;70.40
38436;DHT22;24220;48.168;14.024;2023-03-31T05:20:46;13.00;70.40
38436;DHT22;24220;48.168;14.024;2023-03-31T05:23:13;13.10;70.60
38436;DHT22;24220;48.168;14.024;2023-03-31T05:25:43;13.10;70.80
38436;DHT22;24220;48.168;14.024;2023-03-31T05:28:10;13.10;70.80
38436;DHT22;24220;48.168;14.024;2023-03-31T05:30:40;13.10;70.60
38436;DHT22;24220;48.168;14.024;2023-03-31T05:33:07;13.10;70.70
38436;DHT22;24220;48.168;14.024;2023-03-31T05:35:35;13.10;70.80
38436;DHT22;24220;48.168;14.024;2023-03-31T05:38:03;13.10;70.80
38436;DHT22;24220;48.168;14.024;2023-03-31T05:40:30;13.10;70.90
38436;DHT22;24220;48.168;14.024;2023-03-31T05:42:57;13.20;71.10
38436;DHT22;24220;48.168;14.024;2023-03-31T05:45:25;13.20;71.20
38436;DHT22;24220;48.168;14.024;2023-03-31T05:47:52;13.20;71.20
38436;DHT22;24220;48.168;14.024;2023-03-31T05:50:19;13.20;71.10
38436;DHT22;24220;48.168;14.024;2023-03-31T05:52:47;13.30;71.10
38436;DHT22;24220;48.168;14.024;2023-03-31T05:55:14;13.30;71.10
38436;DHT22;24220;48.168;14.024;2023-03-31T05:57:42;13.30;71.10
38436;DHT22;24220;48.168;14.024;2023-03-31T06:00:09;13.30;71.00
38436;DHT22;24220;48.168;14.024;2023-03-31T06:02:37;13.30;70.90
38436;DHT22;24220;48.168;14.024;2023-03-31T06:05:07;13.30;70.80
38436;DHT22;24220;48.168;14.024;2023-03-31T06:07:37;13.30;70.90
38436;DHT22;24220;48.168;14.024;2023-03-31T06:10:05;13.40;71.00
38436;DHT22;24220;48.168;14.024;2023-03-31T06:12:34;13.40;70.90
38436;DHT22;24220;48.168;14.024;2023-03-31T06:15:04;13.40;71.10
38436;DHT22;24220;48.168;14.024;2023-03-31T06:17:34;13.40;71.10
38436;DHT22;24220;48.168;14.024;2023-03-31T06:20:05;13.40;71.10
38436;DHT22;24220;48.168;14.024;2023-03-31T06:22:50;13.40;71.10
38436;DHT22;24220;48.168;14.024;2023-03-31T06:25:17;13.50;71.10
38436;DHT22;24220;48.168;14.024;2023-03-31T06:27:45;13.50;71.10
38436;DHT22;24220;48.168;14.024;2023-03-31T06:30:12;13.50;71.30
38436;DHT22;24220;48.168;14.024;2023-03-31T06:32:39;13.60;71.50
38436;DHT22;24220;48.168;14.024;2023-03-31T06:35:07;13.60;71.70
38436;DHT22;24220;48.168;14.024;2023-03-31T06:37:35;13.70;71.80
38436;DHT22;24220;48.168;14.024;2023-03-31T06:40:05;13.70;71.80
38436;DHT22;24220;48.168;14.024;2023-03-31T06:42:37;13.80;71.60
38436;DHT22;24220;48.168;14.024;2023-03-31T06:45:05;13.80;71.50
38436;DHT22;24220;48.168;14.024;2023-03-31T06:47:32;13.90;71.40
38436;DHT22;24220;48.168;14.024;2023-03-31T06:50:04;14.00;71.40
38436;DHT22;24220;48.168;14.024;2023-03-31T06:52:32;13.90;71.40
38436;DHT22;24220;48.168;14.024;2023-03-31T06:54:59;14.00;71.40
38436;DHT22;24220;48.168;14.024;2023-03-31T06:57:27;14.00;71.30
38436;DHT22;24220;48.168;14.024;2023-03-31T06:59:55;14.10;71.30
38436;DHT22;24220;48.168;14.024;2023-03-31T07:02:22;14.10;71.30
38436;DHT22;24220;48.168;14.024;2023-03-31T07:04:50;14.10;71.30
38436;DHT22;24220;48.168;14.024;2023-03-31T07:07:17;14.10;71.20
38436;DHT22;24220;48.168;14.024;2023-03-31T07:09:44;14.10;71.20
38436;DHT22;24220;48.168;14.024;2023-03-31T07:12:12;14.10;71.20
38436;DHT22;24220;48.168;14.024;2023-03-31T07:14:39;14.20;71.30
38436;DHT22;24220;48.168;14.024;2023-03-31T07:17:09;14.20;71.20
38436;DHT22;24220;48.168;14.024;2023-03-31T07:19:36;14.10;71.20
38436;DHT22;24220;48.168;14.024;2023-03-31T07:22:08;14.10;71.10
38436;DHT22;24220;48.168;14.024;2023-03-31T07:24:37;14.20;71.20
38436;DHT22;24220;48.168;14.024;2023-03-31T07:27:04;14.20;71.00
38436;DHT22;24220;48.168;14.024;2023-03-31T07:29:34;14.20;71.10
38436;DHT22;24220;48.168;14.024;2023-03-31T07:32:02;14.10;71.00
38436;DHT22;24220;48.168;14.024;2023-03-31T07:34:29;14.20;71.00
38436;DHT22;24220;48.168;14.024;2023-03-31T07:36:56;14.20;71.00
38436;DHT22;24220;48.168;14.024;2023-03-31T07:39:26;14.10;70.90
38436;DHT22;24220;48.168;14.024;2023-03-31T07:41:56;14.10;71.00
38436;DHT22;24220;48.168;14.024;2023-03-31T07:44:23;14.10;70.90
38436;DHT22;24220;48.168;14.024;2023-03-31T07:46:51;14.10;71.00
38436;DHT22;24220;48.168;14.024;2023-03-31T07:49:18;14.10;71.20
38436;DHT22;24220;48.168;14.024;2023-03-31T07:51:45;14.10;71.30
38436;DHT22;24220;48.168;14.024;2023-03-31T07:54:15;14.10;71.50
38436;DHT22;24220;48.168;14.024;2023-03-31T07:56:42;14.10;71.50
38436;DHT22;24220;48.168;14.024;2023-03-31T07:59:13;14.20;71.60
38436;DHT22;24220;48.168;14.024;2023-03-31T08:01:40;14.10;71.70
38436;DHT22;24220;48.168;14.024;2023-03-31T08:04:09;14.20;71.80
38436;DHT22;24220;48.168;14.024;2023-03-31T08:06:38;14.20;71.80
38436;DHT22;24220;48.168;14.024;2023-03-31T08:09:08;14.20;71.80
38436;DHT22;24220;48.168;14.024;2023-03-31T08:11:36;14.20;71.80
38436;DHT22;24220;48.168;14.024;2023-03-31T08:14:03;14.30;71.90
38436;DHT22;24220;48.168;14.024;2023-03-31T08:16:30;14.30;71.80
38436;DHT22;24220;48.168;14.024;2023-03-31T08:19:00;14.30;71.80
38436;DHT22;24220;48.168;14.024;2023-03-31T08:21:28;14.40;71.90
38436;DHT22;24220;48.168;14.024;2023-03-31T08:23:56;14.40;71.90
38436;DHT22;24220;48.168;14.024;2023-03-31T08:26:24;14.40;71.90
38436;DHT22;24220;48.168;14.024;2023-03-31T08:28:52;14.40;71.90
38436;DHT22;24220;48.168;14.024;2023-03-31T08:31:20;14.50;71.90
38436;DHT22;24220;48.168;14.024;2023-03-31T08:33:55;14.50;71.70
38436;DHT22;24220;48.168;14.024;2023-03-31T08:36:24;14.50;71.60
38436;DHT22;24220;48.168;14.024;2023-03-31T08:38:52;14.50;71.70
38436;DHT22;24220;48.168;14.024;2023-03-31T08:43:52;14.60;71.70
38436;DHT22;24220;48.168;14.024;2023-03-31T08:46:24;14.60;71.70
38436;DHT22;24220;48.168;14.024;2023-03-31T08:48:56;14.60;71.80
38436;DHT22;24220;48.168;14.024;2023-03-31T08:51:27;14.60;71.80
38436;DHT22;24220;48.168;14.024;2023-03-31T08:54:00;14.70;71.70
38436;DHT22;24220;48.168;14.024;2023-03-31T08:56:34;14.70;71.70
38436;DHT22;24220;48.168;14.024;2023-03-31T08:59:12;14.70;72.00
38436;DHT22;24220;48.168;14.024;2023-03-31T09:09:57;14.70;71.60
38436;DHT22;24220;48.168;14.024;2023-03-31T09:15:13;14.80;71.80
38436;DHT22;24220;48.168;14.024;2023-03-31T09:17:45;14.80;71.70
38436;DHT22;24220;48.168;14.024;2023-03-31T09:20:35;14.80;71.60
38436;DHT22;24220;48.168;14.024;2023-03-31T09:25:47;14.80;71.70
38436;DHT22;24220;48.168;14.024;2023-03-31T09:28:30;14.80;71.80
38436;DHT22;24220;48.168;14.024;2023-03-31T09:31:10;14.80;72.10
38436;DHT22;24220;48.168;14.024;2023-03-31T09:33:43;14.80;72.50
38436;DHT22;24220;48.168;14.024;2023-03-31T09:36:17;14.80;72.30
38436;DHT22;24220;48.168;14.024;2023-03-31T09:38:45;14.80;72.70
38436;DHT22;24220;48.168;14.024;2023-03-31T09:41:14;14.80;72.90
38436;DHT22;24220;48.168;14.024;2023-03-31T09:43:45;14.80;73.00
38436;DHT22;24220;48.168;14.024;2023-03-31T09:48:51;14.80;73.10
38436;DHT22;24220;48.168;14.024;2023-03-31T09:51:29;14.90;72.90
38436;DHT22;24220;48.168;14.024;2023-03-31T09:54:12;14.90;72.90
38436;DHT22;24220;48.168;14.024;2023-03-31T09:59:18;14.90;72.80
38436;DHT22;24220;48.168;14.024;2023-03-31T10:01:48;15.00;73.00
38436;DHT22;24220;48.168;14.024;2023-03-31T10:04:25;15.00;73.10
38436;DHT22;24220;48.168;14.024;2023-03-31T10:06:54;15.00;73.10
38436;DHT22;24220;48.168;14.024;2023-03-31T10:09:27;15.10;73.10
38436;DHT22;24220;48.168;14.024;2023-03-31T10:11:57;15.10;73.20
38436;DHT22;24220;48.168;14.024;2023-03-31T10:17:06;15.20;73.20
38436;DHT22;24220;48.168;14.024;2023-03-31T10:19:35;15.30;73.40
38436;DHT22;24220;48.168;14.024;2023-03-31T10:22:08;15.30;73.40
38436;DHT22;24220;48.168;14.024;2023-03-31T10:24:43;15.50;73.70
38436;DHT22;24220;48.168;14.024;2023-03-31T10:29:52;15.60;73.80
38436;DHT22;24220;48.168;14.024;2023-03-31T10:34:51;15.90;74.00
38436;DHT22;24220;48.168;14.024;2023-03-31T10:37:21;16.00;73.60
38436;DHT22;24220;48.168;14.024;2023-03-31T10:40:08;16.20;72.60
38436;DHT22;24220;48.168;14.024;2023-03-31T10:42:44;16.30;71.90
38436;DHT22;24220;48.168;14.024;2023-03-31T10:45:43;16.40;71.20
38436;DHT22;24220;48.168;14.024;2023-03-31T10:48:24;16.50;71.30
38436;DHT22;24220;48.168;14.024;2023-03-31T10:51:05;16.50;70.90
38436;DHT22;24220;48.168;14.024;2023-03-31T10:53:50;16.50;71.00
38436;DHT22;24220;48.168;14.024;2023-03-31T10:56:40;16.60;71.70
38436;DHT22;24220;48.168;14.024;2023-03-31T11:07:40;16.70;71.90
38436;DHT22;24220;48.168;14.024;2023-03-31T11:27:29;17.20;71.30
38436;DHT22;24220;48.168;14.024;2023-03-31T11:30:13;17.30;71.20
38436;DHT22;24220;48.168;14.024;2023-03-31T11:38:29;17.70;69.60
38436;DHT22;24220;48.168;14.024;2023-03-31T11:41:22;17.80;69.80
38436;DHT22;24220;48.168;14.024;2023-03-31T11:43:54;17.90;69.30
38436;DHT22;24220;48.168;14.024;2023-03-31T11:46:26;18.00;68.40
38436;DHT22;24220;48.168;14.024;2023-03-31T11:51:58;18.10;67.40
38436;DHT22;24220;48.168;14.024;2023-03-31T11:54:43;18.20;66.80
38436;DHT22;24220;48.168;14.024;2023-03-31T12:00:11;18.20;65.70
38436;DHT22;24220;48.168;14.024;2023-03-31T12:05:55;18.20;65.30
38436;DHT22;24220;48.168;14.024;2023-03-31T12:08:36;18.10;64.40
38436;DHT22;24220;48.168;14.024;2023-03-31T12:11:28;18.10;64.60
38436;DHT22;24220;48.168;14.024;2023-03-31T12:17:04;18.10;64.50
38436;DHT22;24220;48.168;14.024;2023-03-31T12:20:04;18.00;64.20
38436;DHT22;24220;48.168;14.024;2023-03-31T12:22:37;18.00;64.40
38436;DHT22;24220;48.168;14.024;2023-03-31T12:25:12;18.00;65.30
38436;DHT22;24220;48.168;14.024;2023-03-31T12:27:42;17.90;63.80
38436;DHT22;24220;48.168;14.024;2023-03-31T12:32:53;17.80;63.70
38436;DHT22;24220;48.168;14.024;2023-03-31T12:35:31;17.80;63.50
38436;DHT22;24220;48.168;14.024;2023-03-31T12:38:26;17.80;63.40
38436;DHT22;24220;48.168;14.024;2023-03-31T12:43:50;17.80;63.90
38436;DHT22;24220;48.168;14.024;2023-03-31T12:49:12;17.70;63.70
38436;DHT22;24220;48.168;14.024;2023-03-31T12:54:38;17.70;64.00
38436;DHT22;24220;48.168;14.024;2023-03-31T12:59:39;17.70;65.00
38436;DHT22;24220;48.168;14.024;2023-03-31T13:02:16;17.70;64.00
38436;DHT22;24220;48.168;14.024;2023-03-31T13:04:47;17.60;63.30
38436;DHT22;24220;48.168;14.024;2023-03-31T13:13:03;17.50;61.70
38436;DHT22;24220;48.168;14.024;2023-03-31T13:15:31;17.50;61.40
38436;DHT22;24220;48.168;14.024;2023-03-31T13:18:04;17.40;62.10
38436;DHT22;24220;48.168;14.024;2023-03-31T13:20:36;17.40;61.70
38436;DHT22;24220;48.168;14.024;2023-03-31T13:25:42;17.40;62.40
38436;DHT22;24220;48.168;14.024;2023-03-31T13:31:02;17.40;64.40
38436;DHT22;24220;48.168;14.024;2023-03-31T13:33:58;17.30;65.80
38436;DHT22;24220;48.168;14.024;2023-03-31T13:59:31;16.00;66.70
38436;DHT22;24220;48.168;14.024;2023-03-31T14:10:33;15.80;67.40
38436;DHT22;24220;48.168;14.024;2023-03-31T14:13:09;15.80;67.90
38436;DHT22;24220;48.168;14.024;2023-03-31T14:15:40;15.80;68.20
38436;DHT22;24220;48.168;14.024;2023-03-31T14:18:09;15.80;68.10
38436;DHT22;24220;48.168;14.024;2023-03-31T14:21:15;15.80;67.80
38436;DHT22;24220;48.168;14.024;2023-03-31T14:24:04;15.80;68.00
38436;DHT22;24220;48.168;14.024;2023-03-31T14:29:50;15.80;67.90
38436;DHT22;24220;48.168;14.024;2023-03-31T14:37:49;15.80;68.00
38436;DHT22;24220;48.168;14.024;2023-03-31T14:40:17;15.90;67.50
38436;DHT22;24220;48.168;14.024;2023-03-31T14:42:45;15.90;67.50
38436;DHT22;24220;48.168;14.024;2023-03-31T14:45:21;15.90;67.60
38436;DHT22;24220;48.168;14.024;2023-03-31T14:50:35;15.90;66.80
38436;DHT22;24220;48.168;14.024;2023-03-31T14:53:13;16.00;66.90
38436;DHT22;24220;48.168;14.024;2023-03-31T14:55:44;15.90;66.50
38436;DHT22;24220;48.168;14.024;2023-03-31T14:58:35;15.90;66.40
38436;DHT22;24220;48.168;14.024;2023-03-31T15:01:06;16.00;66.50
38436;DHT22;24220;48.168;14.024;2023-03-31T15:03:36;15.90;66.20
38436;DHT22;24220;48.168;14.024;2023-03-31T15:06:08;16.00;66.00
38436;DHT22;24220;48.168;14.024;2023-03-31T15:08:36;15.90;66.00
38436;DHT22;24220;48.168;14.024;2023-03-31T15:11:08;16.00;66.30
38436;DHT22;24220;48.168;14.024;2023-03-31T15:13:44;15.90;65.90
38436;DHT22;24220;48.168;14.024;2023-03-31T15:19:14;16.00;66.40
38436;DHT22;24220;48.168;14.024;2023-03-31T15:21:43;16.00;66.00
38436;DHT22;24220;48.168;14.024;2023-03-31T15:24:12;16.00;66.00
38436;DHT22;24220;48.168;14.024;2023-03-31T15:26:56;16.00;66.00
38436;DHT22;24220;48.168;14.024;2023-03-31T15:30:12;16.00;65.50
38436;DHT22;24220;48.168;14.024;2023-03-31T15:32:43;16.00;65.80
38436;DHT22;24220;48.168;14.024;2023-03-31T15:35:29;16.00;65.40
38436;DHT22;24220;48.168;14.024;2023-03-31T15:37:59;16.00;65.10
38436;DHT22;24220;48.168;14.024;2023-03-31T15:40:30;16.00;64.90
38436;DHT22;24220;48.168;14.024;2023-03-31T15:43:04;16.00;65.10
38436;DHT22;24220;48.168;14.024;2023-03-31T15:45:54;16.00;65.10
38436;DHT22;24220;48.168;14.024;2023-03-31T15:48:37;16.00;65.50
38436;DHT22;24220;48.168;14.024;2023-03-31T15:51:27;16.00;64.50
38436;DHT22;24220;48.168;14.024;2023-03-31T15:53:56;16.00;64.10
38436;DHT22;24220;48.168;14.024;2023-03-31T15:59:03;16.00;64.40
38436;DHT22;24220;48.168;14.024;2023-03-31T16:01:34;15.90;64.00
38436;DHT22;24220;48.168;14.024;2023-03-31T16:04:08;15.90;64.30
38436;DHT22;24220;48.168;14.024;2023-03-31T16:06:55;15.90;64.50
38436;DHT22;24220;48.168;14.024;2023-03-31T16:09:47;15.90;64.00
38436;DHT22;24220;48.168;14.024;2023-03-31T16:15:10;15.90;63.60
38436;DHT22;24220;48.168;14.024;2023-03-31T16:18:04;15.80;63.60
38436;DHT22;24220;48.168;14.024;2023-03-31T16:20:36;15.80;63.60
38436;DHT22;24220;48.168;14.024;2023-03-31T16:23:17;15.80;63.30
38436;DHT22;24220;48.168;14.024;2023-03-31T16:25:45;15.80;63.60
38436;DHT22;24220;48.168;14.024;2023-03-31T16:28:16;15.80;63.20
38436;DHT22;24220;48.168;14.024;2023-03-31T16:30:49;15.80;63.40
38436;DHT22;24220;48.168;14.024;2023-03-31T16:33:21;15.80;63.30
38436;DHT22;24220;48.168;14.024;2023-03-31T16:35:53;15.70;63.20
38436;DHT22;24220;48.168;14.024;2023-03-31T16:38:27;15.70;63.10
38436;DHT22;24220;48.168;14.024;2023-03-31T16:40:56;15.70;63.10
38436;DHT22;24220;48.168;14.024;2023-03-31T16:43:28;15.70;63.10
38436;DHT22;24220;48.168;14.024;2023-03-31T16:46:01;15.70;63.00
38436;DHT22;24220;48.168;14.024;2023-03-31T16:48:31;15.70;62.80
38436;DHT22;24220;48.168;14.024;2023-03-31T16:51:01;15.70;62.90
38436;DHT22;24220;48.168;14.024;2023-03-31T16:53:33;15.70;62.70
38436;DHT22;24220;48.168;14.024;2023-03-31T16:56:01;15.70;62.40
38436;DHT22;24220;48.168;14.024;2023-03-31T16:58:34;15.70;62.40
38436;DHT22;24220;48.168;14.024;2023-03-31T17:01:03;15.60;62.40
38436;DHT22;24220;48.168;14.024;2023-03-31T17:03:35;15.70;62.70
38436;DHT22;24220;48.168;14.024;2023-03-31T17:06:07;15.70;62.60
38436;DHT22;24220;48.168;14.024;2023-03-31T17:08:35;15.70;62.60
38436;DHT22;24220;48.168;14.024;2023-03-31T17:11:11;15.70;63.20
38436;DHT22;24220;48.168;14.024;2023-03-31T17:13:42;15.60;63.40
38436;DHT22;24220;48.168;14.024;2023-03-31T17:16:11;15.70;63.60
38436;DHT22;24220;48.168;14.024;2023-03-31T17:18:41;15.70;63.60
38436;DHT22;24220;48.168;14.024;2023-03-31T17:21:13;15.70;63.20
38436;DHT22;24220;48.168;14.024;2023-03-31T17:23:43;15.70;63.20
38436;DHT22;24220;48.168;14.024;2023-03-31T17:26:15;15.70;63.40
38436;DHT22;24220;48.168;14.024;2023-03-31T17:28:42;15.70;63.50
38436;DHT22;24220;48.168;14.024;2023-03-31T17:31:15;15.70;63.10
38436;DHT22;24220;48.168;14.024;2023-03-31T17:33:45;15.70;62.90
38436;DHT22;24220;48.168;14.024;2023-03-31T17:36:13;15.70;62.70
38436;DHT22;24220;48.168;14.024;2023-03-31T17:38:44;15.70;62.20
38436;DHT22;24220;48.168;14.024;2023-03-31T17:41:12;15.60;62.20
38436;DHT22;24220;48.168;14.024;2023-03-31T17:43:44;15.60;62.20
38436;DHT22;24220;48.168;14.024;2023-03-31T17:46:11;15.60;62.20
38436;DHT22;24220;48.168;14.024;2023-03-31T17:48:40;15.60;62.50
38436;DHT22;24220;48.168;14.024;2023-03-31T17:51:18;15.60;62.70
38436;DHT22;24220;48.168;14.024;2023-03-31T17:53:48;15.60;62.30
38436;DHT22;24220;48.168;14.024;2023-03-31T17:56:16;15.60;62.50
38436;DHT22;24220;48.168;14.024;2023-03-31T17:58:46;15.60;62.70
38436;DHT22;24220;48.168;14.024;2023-03-31T18:01:14;15.70;62.50
38436;DHT22;24220;48.168;14.024;2023-03-31T18:03:41;15.60;62.60
38436;DHT22;24220;48.168;14.024;2023-03-31T18:06:12;15.60;62.50
38436;DHT22;24220;48.168;14.024;2023-03-31T18:08:40;15.60;62.50
38436;DHT22;24220;48.168;14.024;2023-03-31T18:11:10;15.70;62.70
38436;DHT22;24220;48.168;14.024;2023-03-31T18:13:39;15.70;62.90
38436;DHT22;24220;48.168;14.024;2023-03-31T18:16:07;15.60;62.70
38436;DHT22;24220;48.168;14.024;2023-03-31T18:18:36;15.60;62.90
38436;DHT22;24220;48.168;14.024;2023-03-31T18:21:10;15.70;62.80
38436;DHT22;24220;48.168;14.024;2023-03-31T18:23:40;15.70;62.30
38436;DHT22;24220;48.168;14.024;2023-03-31T18:26:11;15.60;62.50
38436;DHT22;24220;48.168;14.024;2023-03-31T18:28:39;15.60;62.20
38436;DHT22;24220;48.168;14.024;2023-03-31T18:31:11;15.60;62.30
38436;DHT22;24220;48.168;14.024;2023-03-31T18:33:41;15.60;62.20
38436;DHT22;24220;48.168;14.024;2023-03-31T18:36:17;15.60;62.30
38436;DHT22;24220;48.168;14.024;2023-03-31T18:38:49;15.50;62.50
38436;DHT22;24220;48.168;14.024;2023-03-31T18:41:16;15.50;62.50
38436;DHT22;24220;48.168;14.024;2023-03-31T18:43:45;15.50;62.50
38436;DHT22;24220;48.168;14.024;2023-03-31T18:46:18;15.50;62.20
38436;DHT22;24220;48.168;14.024;2023-03-31T18:48:46;15.50;62.30
38436;DHT22;24220;48.168;14.024;2023-03-31T18:51:13;15.50;62.00
38436;DHT22;24220;48.168;14.024;2023-03-31T18:53:41;15.50;62.20
38436;DHT22;24220;48.168;14.024;2023-03-31T18:56:09;15.50;61.80
38436;DHT22;24220;48.168;14.024;2023-03-31T18:58:36;15.40;61.50
38436;DHT22;24220;48.168;14.024;2023-03-31T19:01:03;15.40;61.50
38436;DHT22;24220;48.168;14.024;2023-03-31T19:03:33;15.40;61.50